Weather at Ėriškiai Airstrip

Public forecast

Using degrees Celsius for public forecast. Weather courtesy of forecast.io.

Closest aviation weather report (METAR) to Ėriškiai Airstrip

Closest report is Šiauliai International Airport, 35.2 nm (65.1 km) WNW.

2024/07/24 14:50 (retrieved 12 minutes ago)

EYSA 241450Z 13003KT 080V220 9999 SCT046 BKN110 24/14 Q1012 NOSIG

Closest aviation forecast (TAF) to Ėriškiai Airstrip

Closest forecast is Kaunas International Airport, 37.3 nm (69.1 km) S.

2024/07/24 12:05 (retrieved 3 hours ago)

TAF EYKA 241101Z 2412/2512 VRB05KT 9000 BKN040 TEMPO 2412/2415 SCT010 BKN035CB TEMPO 2415/2421 5000 TSRA SCT010 BKN030CB TEMPO 2421/2424 SCT005 BKN030CB TEMPO 2500/2508 3000 TSRA BKN005 BKN020CB